KCHD/CHD METAR and TAF weather

Enter ICAO airport designator
Station Type Date Time Source
KCHD METAR 2020/06/06 00:47 UTC NOAA

KCHD 060047Z 21014G20KT 10SM SCT120 BKN200 39/M02 A2959


Station Type Date Time Source
KCHD Decoded METAR 2020/06/06 00:47 UTC NOAA

Chandler, Chandler Municipal Airport, AZ, United States (KCHD) 33-16-09N 111-48-40W
Jun 05, 2020 - 08:47 PM EDT / 2020.06.06 0047 UTC
Wind: from the SSW (210 degrees) at 16 MPH (14 KT) gusting to 23 MPH (20 KT):0
Visibility: 10 mile(s):0
Sky conditions: mostly cloudy
Temperature: 102 F (39 C)
Dew Point: 28 F (-2 C)
Relative Humidity: 7%
Pressure (altimeter): 29.59 in. Hg (1002 hPa)
ob: KCHD 060047Z 21014G20KT 10SM SCT120 BKN200 39/M02 A2959
cycle: 1

Station Type Date Time Source
KCHD TAF UTC NOAA

Error!

Example: see airport list